createdAt,value
2018-07-15T00:01:14.838Z,5.97
2018-07-15T00:03:43.528Z,4.47
2018-07-15T00:06:12.203Z,5.27
2018-07-15T00:08:41.019Z,4.93
2018-07-15T00:11:09.691Z,4.93
2018-07-15T00:13:38.447Z,4.60
2018-07-15T00:16:07.173Z,5.30
2018-07-15T00:18:35.859Z,4.60
2018-07-15T00:21:04.621Z,4.97
2018-07-15T00:23:33.365Z,5.97
2018-07-15T00:26:02.031Z,4.73
2018-07-15T00:28:30.738Z,4.93
2018-07-15T00:30:59.392Z,5.00
2018-07-15T00:33:28.079Z,5.30
2018-07-15T00:35:56.815Z,5.23
2018-07-15T00:38:25.536Z,5.60
2018-07-15T00:40:54.269Z,5.17
2018-07-15T00:43:23.145Z,4.73
2018-07-15T00:45:51.822Z,5.47
2018-07-15T00:48:20.510Z,4.87
2018-07-15T00:50:49.163Z,5.23
2018-07-15T00:53:17.862Z,5.20
2018-07-15T00:55:46.554Z,4.77
2018-07-15T00:58:15.256Z,4.30
2018-07-15T01:00:49.213Z,5.87
2018-07-15T01:03:17.927Z,5.20
2018-07-15T01:05:46.644Z,5.47
2018-07-15T01:08:15.302Z,5.67
2018-07-15T01:10:44.036Z,5.60
2018-07-15T01:13:12.695Z,6.00
2018-07-15T01:15:41.362Z,5.60
2018-07-15T01:18:10.074Z,5.43
2018-07-15T01:20:38.842Z,5.13
2018-07-15T01:23:07.481Z,4.70
2018-07-15T01:25:36.132Z,5.17
2018-07-15T01:28:04.897Z,5.80
2018-07-15T01:30:33.646Z,5.33
2018-07-15T01:33:02.346Z,5.03
2018-07-15T01:35:31.044Z,6.60
2018-07-15T01:37:59.790Z,4.87
2018-07-15T01:40:28.492Z,5.70
2018-07-15T01:42:57.184Z,5.40
2018-07-15T01:45:25.839Z,5.13
2018-07-15T01:47:54.582Z,4.77
2018-07-15T01:50:23.241Z,5.03
2018-07-15T01:52:51.932Z,4.93
2018-07-15T01:55:20.642Z,6.37
2018-07-15T01:57:49.434Z,5.10
2018-07-15T02:00:18.157Z,5.13
2018-07-15T02:02:46.796Z,5.30
2018-07-15T02:05:15.098Z,6.47
2018-07-15T02:07:43.793Z,6.00
2018-07-15T02:10:12.536Z,5.57
2018-07-15T02:12:41.439Z,5.30
2018-07-15T02:15:10.123Z,6.23
2018-07-15T02:17:38.928Z,5.10
2018-07-15T02:20:07.679Z,5.97
2018-07-15T02:22:36.032Z,5.70
2018-07-15T02:25:04.746Z,4.67
2018-07-15T02:27:33.435Z,5.57
2018-07-15T02:30:02.160Z,5.60
2018-07-15T02:32:30.901Z,6.23
2018-07-15T02:34:59.567Z,6.83
2018-07-15T02:37:28.231Z,5.43
2018-07-15T02:39:56.569Z,5.23
2018-07-15T02:42:25.308Z,5.13
2018-07-15T02:44:54.031Z,6.70
2018-07-15T02:47:22.772Z,5.47
2018-07-15T02:49:51.470Z,6.10
2018-07-15T02:52:20.193Z,5.23
2018-07-15T02:54:48.905Z,4.90
2018-07-15T02:57:17.579Z,6.50
2018-07-15T02:59:46.291Z,5.50
2018-07-15T03:02:14.980Z,5.63
2018-07-15T03:04:43.693Z,7.13
2018-07-15T03:07:12.387Z,5.47
2018-07-15T03:09:41.183Z,6.33
2018-07-15T03:12:09.513Z,6.00
2018-07-15T03:14:38.174Z,5.47
2018-07-15T03:17:06.907Z,6.93
2018-07-15T03:19:35.573Z,8.00
2018-07-15T03:22:04.338Z,5.60
2018-07-15T03:24:33.006Z,5.43
2018-07-15T03:27:01.317Z,6.03
2018-07-15T03:29:30.036Z,6.33
2018-07-15T03:31:58.739Z,6.00
2018-07-15T03:34:27.393Z,5.90
2018-07-15T03:36:56.058Z,6.67
2018-07-15T03:39:24.809Z,6.70
2018-07-15T03:41:53.502Z,6.53
2018-07-15T03:44:22.183Z,6.73
2018-07-15T03:46:50.833Z,6.80
2018-07-15T03:49:19.522Z,6.80
2018-07-15T03:51:48.290Z,5.90
2018-07-15T03:54:17.166Z,5.90
2018-07-15T03:56:45.868Z,6.00
2018-07-15T03:59:14.490Z,6.57
2018-07-15T04:01:43.211Z,5.57
2018-07-15T04:04:11.908Z,6.00
2018-07-15T04:06:40.605Z,8.40
2018-07-15T04:09:09.250Z,6.07
2018-07-15T04:11:38.195Z,5.90
2018-07-15T04:14:06.942Z,6.13
2018-07-15T04:16:35.624Z,6.10
2018-07-15T04:19:04.296Z,6.53
2018-07-15T04:21:32.959Z,6.60
2018-07-15T04:24:01.658Z,6.53
2018-07-15T04:26:30.290Z,7.53
2018-07-15T04:28:59.064Z,6.50
2018-07-15T04:31:27.776Z,7.90
2018-07-15T04:33:56.486Z,7.57
2018-07-15T04:36:25.140Z,7.70
2018-07-15T04:38:53.865Z,10.07
2018-07-15T04:41:22.576Z,9.83
2018-07-15T04:43:51.354Z,8.23
2018-07-15T04:46:20.383Z,8.77
2018-07-15T04:48:49.072Z,9.70
2018-07-15T04:51:17.932Z,9.47
2018-07-15T04:53:46.691Z,9.43
2018-07-15T04:56:15.383Z,9.43
2018-07-15T04:58:44.059Z,10.43
2018-07-15T05:01:12.767Z,10.80
2018-07-15T05:03:41.482Z,10.97
2018-07-15T05:06:10.159Z,9.87
2018-07-15T05:08:38.966Z,10.80
2018-07-15T05:11:07.701Z,11.83
2018-07-15T05:13:36.350Z,10.20
2018-07-15T05:16:05.085Z,12.17
2018-07-15T05:18:33.890Z,12.73
2018-07-15T05:21:02.521Z,14.10
2018-07-15T05:23:30.856Z,12.80
2018-07-15T05:25:59.487Z,13.20
2018-07-15T05:28:27.906Z,10.23
2018-07-15T05:30:56.679Z,9.00
2018-07-15T05:33:25.442Z,7.50
2018-07-15T05:35:54.236Z,7.17
2018-07-15T05:38:23.111Z,6.83
2018-07-15T05:40:52.006Z,6.13
2018-07-15T05:43:20.356Z,6.20
2018-07-15T05:45:49.080Z,8.27
2018-07-15T05:48:17.741Z,6.47
2018-07-15T05:50:46.696Z,7.23
2018-07-15T05:53:17.246Z,7.20
2018-07-15T05:55:46.219Z,9.47
2018-07-15T05:58:21.583Z,6.60
2018-07-15T06:00:52.107Z,6.70
2018-07-15T06:03:22.371Z,6.57
2018-07-15T06:05:52.969Z,6.50
2018-07-15T06:08:23.243Z,6.77
2018-07-15T06:10:54.428Z,6.60
2018-07-15T06:13:23.499Z,7.63
2018-07-15T06:15:52.306Z,7.17
2018-07-15T06:18:21.844Z,7.00
2018-07-15T06:20:50.810Z,6.87
2018-07-15T06:23:19.638Z,8.63
2018-07-15T06:25:48.040Z,7.90
2018-07-15T06:28:16.777Z,7.07
2018-07-15T06:30:45.520Z,6.70
2018-07-15T06:33:14.223Z,7.50
2018-07-15T06:35:42.908Z,7.33
2018-07-15T06:38:11.617Z,7.00
2018-07-15T06:40:40.492Z,7.03
2018-07-15T06:43:08.781Z,7.17
2018-07-15T06:45:37.515Z,8.23
2018-07-15T06:48:06.224Z,7.23
2018-07-15T06:50:34.895Z,7.27
2018-07-15T06:53:03.606Z,6.97
2018-07-15T06:55:32.320Z,7.33
2018-07-15T06:58:01.015Z,7.07
2018-07-15T07:00:29.748Z,6.53
2018-07-15T07:02:58.474Z,6.87
2018-07-15T07:05:27.218Z,7.50
2018-07-15T07:07:55.890Z,7.20
2018-07-15T07:10:24.641Z,7.03
2018-07-15T07:12:53.299Z,6.43
2018-07-15T07:15:22.020Z,6.63
2018-07-15T07:17:50.704Z,7.17
2018-07-15T07:20:19.425Z,7.40
2018-07-15T07:22:48.103Z,7.53
2018-07-15T07:25:16.738Z,6.33
2018-07-15T07:27:45.452Z,6.63
2018-07-15T07:30:14.160Z,6.47
2018-07-15T07:32:42.828Z,6.63
2018-07-15T07:35:11.497Z,6.37
2018-07-15T07:37:40.261Z,6.63
2018-07-15T07:40:09.031Z,6.53
2018-07-15T07:42:37.748Z,6.53
2018-07-15T07:45:06.848Z,6.00
2018-07-15T07:47:35.521Z,5.90
2018-07-15T07:50:05.335Z,5.20
2018-07-15T07:52:34.891Z,5.33
2018-07-15T07:55:03.663Z,5.93
2018-07-15T07:57:32.324Z,7.40
2018-07-15T08:00:01.035Z,5.43
2018-07-15T08:02:29.728Z,5.80
2018-07-15T08:04:58.444Z,5.00
2018-07-15T08:07:27.114Z,4.97
2018-07-15T08:09:55.513Z,4.87
2018-07-15T08:12:24.164Z,5.03
2018-07-15T08:14:52.896Z,4.10
2018-07-15T08:17:21.559Z,3.93
2018-07-15T08:19:50.355Z,4.40
2018-07-15T08:22:19.075Z,4.40
2018-07-15T08:24:47.762Z,4.47
2018-07-15T08:27:16.488Z,4.10
2018-07-15T08:29:56.477Z,4.40
2018-07-15T08:32:25.150Z,4.43
2018-07-15T08:34:53.895Z,4.00
2018-07-15T08:37:22.562Z,3.70
2018-07-15T08:39:51.505Z,3.73
2018-07-15T08:42:20.158Z,3.70
2018-07-15T08:44:48.908Z,8.13
2018-07-15T08:47:17.608Z,3.67
2018-07-15T08:49:45.939Z,3.17
2018-07-15T08:52:14.742Z,5.30
2018-07-15T08:54:43.363Z,2.77
2018-07-15T08:57:12.073Z,3.57
2018-07-15T08:59:41.059Z,10.90
2018-07-15T09:02:09.929Z,19.80
2018-07-15T09:04:38.224Z,4.00
2018-07-15T09:07:07.105Z,4.70
2018-07-15T09:09:35.771Z,2.70
2018-07-15T09:12:04.570Z,2.50
2018-07-15T09:14:33.240Z,2.87
2018-07-15T09:17:01.995Z,3.73
2018-07-15T09:19:30.701Z,2.13
2018-07-15T09:21:59.546Z,2.43
2018-07-15T09:24:28.240Z,3.73
2018-07-15T09:26:56.922Z,3.10
2018-07-15T09:29:25.623Z,2.27
2018-07-15T09:31:54.605Z,1.87
2018-07-15T09:34:23.384Z,1.93
2018-07-15T09:36:52.225Z,12.77
2018-07-15T09:39:20.970Z,4.17
2018-07-15T09:41:50.578Z,1.83
2018-07-15T09:44:19.291Z,2.63
2018-07-15T09:46:48.243Z,2.07
2018-07-15T09:49:17.543Z,2.27
2018-07-15T09:51:46.865Z,1.63
2018-07-15T09:54:15.646Z,1.30
2018-07-15T09:56:44.535Z,1.83
2018-07-15T09:59:13.315Z,2.37
2018-07-15T10:01:42.092Z,2.60
2018-07-15T10:04:10.771Z,1.92
2018-07-15T10:06:39.579Z,1.12
2018-07-15T10:09:08.269Z,2.25
2018-07-15T10:11:37.566Z,1.05
2018-07-15T10:14:06.444Z,2.47
2018-07-15T10:16:34.744Z,1.52
2018-07-15T10:19:03.621Z,1.93
2018-07-15T10:21:32.296Z,2.40
2018-07-15T10:38:25.557Z,1.73
2018-07-15T10:40:54.788Z,1.27
2018-07-15T10:43:23.824Z,1.00
2018-07-15T10:45:53.109Z,2.00
2018-07-15T10:48:21.965Z,4.33
2018-07-15T10:50:51.472Z,2.23
2018-07-15T10:53:20.321Z,2.23
2018-07-15T10:55:49.025Z,1.33
2018-07-15T10:58:17.942Z,2.27
2018-07-15T11:00:46.636Z,1.33
2018-07-15T11:03:15.423Z,1.23
2018-07-15T11:05:44.414Z,1.30
2018-07-15T11:08:13.027Z,2.10
2018-07-15T11:10:41.817Z,1.00
2018-07-15T11:13:10.690Z,1.30
2018-07-15T11:15:39.475Z,1.13
2018-07-15T11:18:08.543Z,3.67
2018-07-15T11:20:38.065Z,1.57
2018-07-15T11:23:07.234Z,2.70
2018-07-15T11:25:36.352Z,0.90
2018-07-15T11:28:05.223Z,1.00
2018-07-15T11:30:33.922Z,2.50
2018-07-15T11:35:52.949Z,2.57
2018-07-15T11:38:21.618Z,1.37
2018-07-15T11:40:50.344Z,0.83
2018-07-15T11:43:19.569Z,0.87
2018-07-15T11:45:48.280Z,0.83
2018-07-15T11:48:16.952Z,0.80
2018-07-15T11:50:45.673Z,1.10
2018-07-15T11:53:14.420Z,2.23
2018-07-15T11:55:43.189Z,1.47
2018-07-15T11:58:11.507Z,2.33
2018-07-15T12:00:40.293Z,1.00
2018-07-15T12:03:08.971Z,1.70
2018-07-15T12:05:37.621Z,1.00
2018-07-15T12:08:06.555Z,0.80
2018-07-15T12:10:35.313Z,1.67
2018-07-15T12:13:03.995Z,2.10
2018-07-15T12:15:32.727Z,2.10
2018-07-15T12:18:01.458Z,1.00
2018-07-15T12:20:30.184Z,1.00
2018-07-15T12:22:58.826Z,0.93
2018-07-15T12:25:27.530Z,0.93
2018-07-15T12:27:56.232Z,1.43
2018-07-15T12:30:24.900Z,3.67
2018-07-15T12:32:53.570Z,0.70
2018-07-15T12:35:22.274Z,1.17
2018-07-15T12:37:51.042Z,1.40
2018-07-15T12:40:19.731Z,1.57
2018-07-15T12:42:48.428Z,1.00
2018-07-15T12:45:17.096Z,0.77
2018-07-15T12:47:45.424Z,0.60
2018-07-15T12:50:14.123Z,2.83
2018-07-15T12:52:42.771Z,0.70
2018-07-15T12:55:11.467Z,1.90
2018-07-15T12:57:46.700Z,1.27
2018-07-15T13:00:15.453Z,1.13
2018-07-15T13:02:44.115Z,0.87
2018-07-15T13:05:12.799Z,2.90
2018-07-15T13:07:41.616Z,0.70
2018-07-15T13:10:10.267Z,1.90
2018-07-15T13:12:38.964Z,1.07
2018-07-15T13:15:07.726Z,1.63
2018-07-15T13:17:36.347Z,0.70
2018-07-15T13:20:05.049Z,2.20
2018-07-15T13:22:33.736Z,1.17
2018-07-15T13:25:02.452Z,0.67
2018-07-15T13:27:31.105Z,0.63
2018-07-15T13:29:59.815Z,0.70
2018-07-15T13:32:28.539Z,1.90
2018-07-15T13:34:57.223Z,1.50
2018-07-15T13:37:26.010Z,1.80
2018-07-15T13:39:54.715Z,1.57
2018-07-15T13:42:23.426Z,1.17
2018-07-15T13:44:52.084Z,0.60
2018-07-15T13:47:20.879Z,1.10
2018-07-15T13:49:49.601Z,0.67
2018-07-15T13:52:18.305Z,4.63
2018-07-15T13:54:46.959Z,0.60
2018-07-15T13:57:15.672Z,2.13
2018-07-15T13:59:44.307Z,1.00
2018-07-15T14:02:13.013Z,1.63
2018-07-15T14:04:41.801Z,0.50
2018-07-15T14:07:10.496Z,2.87
2018-07-15T14:09:39.166Z,1.53
2018-07-15T14:12:07.919Z,2.20
2018-07-15T14:14:36.645Z,0.67
2018-07-15T14:17:05.387Z,0.63
2018-07-15T14:19:34.055Z,5.47
2018-07-15T14:22:02.894Z,0.63
2018-07-15T14:24:31.634Z,1.43
2018-07-15T14:27:00.287Z,2.77
2018-07-15T14:29:28.972Z,1.97
2018-07-15T14:31:57.719Z,1.10
2018-07-15T14:34:26.407Z,0.70
2018-07-15T14:36:55.102Z,2.50
2018-07-15T14:39:32.957Z,1.23
2018-07-15T14:42:01.627Z,0.70
2018-07-15T14:44:30.283Z,0.77
2018-07-15T14:46:58.955Z,0.90
2018-07-15T14:49:27.651Z,0.60
2018-07-15T14:51:56.302Z,0.60
2018-07-15T14:54:25.001Z,0.60
2018-07-15T14:56:53.653Z,0.70
2018-07-15T14:59:22.589Z,0.77
2018-07-15T15:01:51.334Z,1.40
2018-07-15T15:04:20.087Z,2.03
2018-07-15T15:06:48.980Z,1.13
2018-07-15T15:09:17.856Z,0.70
2018-07-15T15:11:46.550Z,2.50
2018-07-15T15:14:15.247Z,3.07
2018-07-15T15:16:43.988Z,0.93
2018-07-15T15:19:13.122Z,2.50
2018-07-15T15:21:41.907Z,0.80
2018-07-15T15:24:10.696Z,0.80
2018-07-15T15:26:39.076Z,0.73
2018-07-15T15:29:07.823Z,2.50
2018-07-15T15:31:36.492Z,1.13
2018-07-15T15:34:05.181Z,1.00
2018-07-15T15:36:33.839Z,2.40
2018-07-15T15:39:02.635Z,3.90
2018-07-15T15:41:31.381Z,0.60
2018-07-15T15:44:00.004Z,0.80
2018-07-15T15:46:28.737Z,1.43
2018-07-15T15:48:57.382Z,1.40
2018-07-15T15:51:26.080Z,0.60
2018-07-15T15:53:54.790Z,1.37
2018-07-15T15:56:24.113Z,0.87
2018-07-15T15:58:52.823Z,1.57
2018-07-15T16:01:21.513Z,1.10
2018-07-15T16:03:50.203Z,0.80
2018-07-15T16:06:18.902Z,0.60
2018-07-15T16:08:47.603Z,1.60
2018-07-15T16:11:16.349Z,2.20
2018-07-15T16:13:45.060Z,1.43
2018-07-15T16:16:13.759Z,1.00
2018-07-15T16:18:43.354Z,3.43
2018-07-15T16:21:12.085Z,1.70
2018-07-15T16:23:40.826Z,0.70
2018-07-15T16:26:09.533Z,0.70
2018-07-15T16:28:38.251Z,1.03
2018-07-15T16:31:06.937Z,0.70
2018-07-15T16:33:35.678Z,1.80
2018-07-15T16:36:04.419Z,20.93
2018-07-15T16:38:33.132Z,1.43
2018-07-15T16:41:01.857Z,1.13
2018-07-15T16:43:30.747Z,1.00
2018-07-15T16:45:59.381Z,2.40
2018-07-15T16:48:28.321Z,0.67
2018-07-15T16:50:57.134Z,0.60
2018-07-15T16:53:25.845Z,1.40
2018-07-15T16:55:54.621Z,0.97
2018-07-15T16:58:23.372Z,2.23
2018-07-15T17:00:52.640Z,0.80
2018-07-15T17:03:21.337Z,1.07
2018-07-15T17:05:50.073Z,3.20
2018-07-15T17:08:18.811Z,2.87
2018-07-15T17:10:47.503Z,1.57
2018-07-15T17:13:16.145Z,1.33
2018-07-15T17:15:44.803Z,1.90
2018-07-15T17:18:13.537Z,4.33
2018-07-15T17:20:42.558Z,2.60
2018-07-15T17:23:11.130Z,0.80
2018-07-15T17:25:39.942Z,0.70
2018-07-15T17:28:08.604Z,1.47
2018-07-15T17:30:37.314Z,1.27
2018-07-15T17:33:06.296Z,3.10
2018-07-15T17:35:34.950Z,1.03
2018-07-15T17:38:03.770Z,1.63
2018-07-15T17:40:32.476Z,2.13
2018-07-15T17:43:01.219Z,4.43
2018-07-15T17:45:29.883Z,3.43
2018-07-15T17:47:58.579Z,1.93
2018-07-15T17:50:27.230Z,2.50
2018-07-15T17:52:56.000Z,3.63
2018-07-15T17:55:24.655Z,2.80
2018-07-15T17:57:53.331Z,1.07
2018-07-15T18:00:22.102Z,2.63
2018-07-15T18:02:50.748Z,1.87
2018-07-15T18:05:19.399Z,4.07
2018-07-15T18:07:48.116Z,9.63
2018-07-15T18:10:16.767Z,7.73
2018-07-15T18:12:45.460Z,3.20
2018-07-15T18:15:17.043Z,3.50
2018-07-15T18:17:45.727Z,1.70
2018-07-15T18:20:14.447Z,1.20
2018-07-15T18:22:43.479Z,1.10
2018-07-15T18:25:12.149Z,3.10
2018-07-15T18:27:40.973Z,3.20
2018-07-15T18:30:09.706Z,1.40
2018-07-15T18:32:38.356Z,1.30
2018-07-15T18:35:07.067Z,3.40
2018-07-15T18:37:35.749Z,1.57
2018-07-15T18:40:04.473Z,4.17
2018-07-15T18:42:33.167Z,4.10
2018-07-15T18:45:01.930Z,1.97
2018-07-15T18:47:30.594Z,1.53
2018-07-15T18:49:59.329Z,1.30
2018-07-15T18:52:28.063Z,1.93
2018-07-15T18:54:56.820Z,2.13
2018-07-15T18:57:25.517Z,2.20
2018-07-15T18:59:54.181Z,1.57
2018-07-15T19:02:22.880Z,1.40
2018-07-15T19:04:51.624Z,1.63
2018-07-15T19:07:20.316Z,2.33
2018-07-15T19:09:49.000Z,1.47
2018-07-15T19:12:17.664Z,3.23
2018-07-15T19:14:46.415Z,2.33
2018-07-15T19:17:15.120Z,3.13
2018-07-15T19:19:44.046Z,1.30
2018-07-15T19:22:12.727Z,2.07
2018-07-15T19:24:41.561Z,1.83
2018-07-15T19:27:10.202Z,3.47
2018-07-15T19:29:38.939Z,3.10
2018-07-15T19:32:07.704Z,6.73
2018-07-15T19:34:36.545Z,1.70
2018-07-15T19:37:05.673Z,3.50
2018-07-15T19:39:33.990Z,2.73
2018-07-15T19:42:02.931Z,3.27
2018-07-15T19:44:31.669Z,3.63
2018-07-15T19:47:00.375Z,4.70
2018-07-15T19:49:29.136Z,1.50
2018-07-15T19:51:58.036Z,1.77
2018-07-15T19:54:26.719Z,3.20
2018-07-15T19:56:55.615Z,2.37
2018-07-15T19:59:24.407Z,4.53
2018-07-15T20:01:53.206Z,3.27
2018-07-15T20:04:22.188Z,4.43
2018-07-15T20:06:51.211Z,2.60
2018-07-15T20:09:19.803Z,1.60
2018-07-15T20:11:48.929Z,3.67
2018-07-15T20:14:17.800Z,2.67
2018-07-15T20:16:46.612Z,2.40
2018-07-15T20:19:15.464Z,2.17
2018-07-15T20:21:44.327Z,2.57
2018-07-15T20:24:13.165Z,4.33
2018-07-15T20:26:42.119Z,1.77
2018-07-15T20:29:10.815Z,3.10
2018-07-15T20:31:39.648Z,2.80
2018-07-15T20:34:08.405Z,4.23
2018-07-15T20:36:37.068Z,3.10
2018-07-15T20:39:06.108Z,1.60
2018-07-15T20:41:34.779Z,1.87
2018-07-15T20:44:03.555Z,1.97
2018-07-15T20:46:32.475Z,2.37
2018-07-15T20:49:01.256Z,1.83
2018-07-15T20:51:29.968Z,2.00
2018-07-15T20:53:58.667Z,2.20
2018-07-15T20:56:27.358Z,1.80
2018-07-15T20:58:56.023Z,2.93
2018-07-15T21:01:24.684Z,3.60
2018-07-15T21:03:53.345Z,4.87
2018-07-15T21:06:22.043Z,5.17
2018-07-15T21:08:50.737Z,5.00
2018-07-15T21:11:19.415Z,3.00
2018-07-15T21:13:48.066Z,2.33
2018-07-15T21:16:16.720Z,3.00
2018-07-15T21:18:45.439Z,3.37
2018-07-15T21:21:14.155Z,5.43
2018-07-15T21:23:42.789Z,3.80
2018-07-15T21:26:11.456Z,2.10
2018-07-15T21:28:40.257Z,5.47
2018-07-15T21:31:08.947Z,3.37
2018-07-15T21:33:37.627Z,2.77
2018-07-15T21:36:06.339Z,3.03
2018-07-15T21:38:35.043Z,2.33
2018-07-15T21:41:04.018Z,3.13
2018-07-15T21:43:32.704Z,2.00
2018-07-15T21:46:01.386Z,4.63
2018-07-15T21:48:30.134Z,2.73
2018-07-15T21:50:58.489Z,2.97
2018-07-15T21:53:27.163Z,2.47
2018-07-15T21:55:55.929Z,2.80
2018-07-15T21:58:24.622Z,6.20
2018-07-15T22:00:54.877Z,4.03
2018-07-15T22:03:24.347Z,2.90
2018-07-15T22:05:53.079Z,4.77
2018-07-15T22:08:32.985Z,3.33
2018-07-15T22:11:01.708Z,6.30
2018-07-15T22:13:30.416Z,4.47
2018-07-15T22:15:59.129Z,3.53
2018-07-15T22:18:27.864Z,3.13
2018-07-15T22:20:56.574Z,2.50
2018-07-15T22:23:25.249Z,2.67
2018-07-15T22:25:53.877Z,2.93
2018-07-15T22:28:22.571Z,4.63
2018-07-15T22:30:51.243Z,5.83
2018-07-15T22:33:19.879Z,4.70
2018-07-15T22:35:48.600Z,3.60
2018-07-15T22:38:17.252Z,3.20
2018-07-15T22:40:45.907Z,3.27
2018-07-15T22:43:14.602Z,4.40
2018-07-15T22:45:49.839Z,4.30
2018-07-15T22:48:18.528Z,3.03
2018-07-15T22:50:47.197Z,3.70
2018-07-15T22:53:15.871Z,4.60
2018-07-15T22:55:44.228Z,4.67
2018-07-15T22:58:12.930Z,3.60
2018-07-15T23:00:41.666Z,4.90
2018-07-15T23:03:10.373Z,2.90
2018-07-15T23:05:51.302Z,4.60
2018-07-15T23:08:20.317Z,4.17
2018-07-15T23:10:48.958Z,3.20
2018-07-15T23:13:18.129Z,6.50
2018-07-15T23:15:47.106Z,3.90
2018-07-15T23:18:15.836Z,5.13
2018-07-15T23:20:45.358Z,5.77
2018-07-15T23:23:14.710Z,5.00
2018-07-15T23:25:43.545Z,4.63
2018-07-15T23:28:13.288Z,4.40
2018-07-15T23:30:42.652Z,5.03
2018-07-15T23:33:11.390Z,6.10
2018-07-15T23:35:40.112Z,10.10
2018-07-15T23:38:08.795Z,3.30
2018-07-15T23:40:37.536Z,6.30
2018-07-15T23:43:05.933Z,5.93
2018-07-15T23:45:35.476Z,2.87
2018-07-15T23:48:04.199Z,3.97
2018-07-15T23:50:32.925Z,3.50
2018-07-15T23:53:01.649Z,3.90
2018-07-15T23:55:30.344Z,4.90
2018-07-15T23:57:59.102Z,4.53
